Time;durP1;ratioP1;P1;durP2;ratioP2;P2;SDS_P1;SDS_P2;PMS_P1;PMS_P2;Temp;Humidity;BMP_temperature;BMP_pressure;BME280_temperature;BME280_humidity;BME280_pressure;Samples;Min_cycle;Max_cycle;Signal;HPM_P1;HPM_P2
2022/09/16 00:00:36;;;;;;;0.20;0.20;;;24.90;64.40;;;;;;4986361;28;20057;-42
2022/09/16 00:03:02;;;;;;;0.30;0.30;;;24.90;65.20;;;;;;4983841;28;20049;-42
2022/09/16 00:05:27;;;;;;;0.28;0.28;;;24.90;64.40;;;;;;4986221;28;20046;-42
2022/09/16 00:07:54;;;;;;;0.20;0.20;;;24.90;64.40;;;;;;4986134;28;20508;-41
2022/09/16 00:10:20;;;;;;;0.20;0.20;;;24.90;64.20;;;;;;4986635;28;20042;-42
2022/09/16 00:12:46;;;;;;;1.02;0.30;;;24.90;64.40;;;;;;4985158;28;20467;-40
2022/09/16 00:15:11;;;;;;;0.20;0.20;;;24.90;64.30;;;;;;4985314;28;20055;-41
2022/09/16 00:17:37;;;;;;;0.20;0.20;;;24.90;64.30;;;;;;4980199;28;20046;-41
2022/09/16 00:20:03;;;;;;;0.10;0.10;;;24.90;64.20;;;;;;4985526;28;20091;-41
2022/09/16 00:22:29;;;;;;;0.30;0.20;;;24.90;64.20;;;;;;4986631;28;20064;-41
2022/09/16 00:24:54;;;;;;;0.17;0.17;;;24.90;64.30;;;;;;4984325;28;20042;-45
2022/09/16 00:27:20;;;;;;;0.20;0.20;;;24.90;64.20;;;;;;4985287;28;20054;-41
2022/09/16 00:29:45;;;;;;;0.38;0.20;;;24.80;64.30;;;;;;4988498;28;20046;-41
2022/09/16 00:32:11;;;;;;;0.25;0.20;;;24.80;64.20;;;;;;4991290;28;20543;-41
2022/09/16 00:34:37;;;;;;;0.10;0.10;;;24.90;64.30;;;;;;4986878;28;20047;-42
2022/09/16 00:37:03;;;;;;;0.10;0.10;;;24.80;64.30;;;;;;4992117;28;20042;-40
2022/09/16 00:39:29;;;;;;;0.32;0.20;;;24.80;64.20;;;;;;4984224;28;20155;-41
2022/09/16 00:41:54;;;;;;;0.20;0.20;;;24.80;64.10;;;;;;4986134;28;20123;-42
2022/09/16 00:44:51;;;;;;;0.20;0.20;;;24.80;64.10;;;;;;4984314;28;20144;-40
2022/09/16 00:47:20;;;;;;;0.17;0.10;;;24.80;64.10;;;;;;4984696;28;20065;-43
2022/09/16 00:49:45;;;;;;;0.30;0.22;;;24.80;64.00;;;;;;4986635;28;20058;-42
2022/09/16 00:52:11;;;;;;;0.55;0.20;;;24.80;64.00;;;;;;4984387;28;20501;-40
2022/09/16 00:54:36;;;;;;;0.30;0.28;;;24.80;64.00;;;;;;4982079;28;20050;-41
2022/09/16 00:57:03;;;;;;;0.20;0.20;;;24.90;63.80;;;;;;4985324;28;20130;-39
2022/09/16 00:59:30;;;;;;;0.10;0.10;;;24.90;64.00;;;;;;4982999;28;20074;-41
2022/09/16 01:01:57;;;;;;;0.20;0.20;;;24.80;64.00;;;;;;4986462;28;20038;-40
2022/09/16 01:04:31;;;;;;;0.22;0.22;;;24.80;63.90;;;;;;4999419;28;20490;-40
2022/09/16 01:06:57;;;;;;;0.32;0.30;;;24.80;64.00;;;;;;4981651;28;20038;-29
2022/09/16 01:09:24;;;;;;;0.20;0.20;;;24.80;63.90;;;;;;4966435;28;20408;-40
2022/09/16 01:11:50;;;;;;;0.20;0.20;;;24.80;63.80;;;;;;4984994;28;20050;-40
2022/09/16 01:17:10;;;;;;;0.15;0.15;;;24.80;63.90;;;;;;4980915;28;20121;-40
2022/09/16 01:20:03;;;;;;;0.10;0.10;;;24.70;63.70;;;;;;4967765;28;20049;-40
2022/09/16 01:22:47;;;;;;;0.28;0.20;;;24.70;63.80;;;;;;4985244;28;20043;-41
2022/09/16 01:25:21;;;;;;;0.28;0.28;;;24.80;63.90;;;;;;4982884;28;20141;-39
2022/09/16 01:28:11;;;;;;;0.20;0.20;;;24.70;63.80;;;;;;4984285;28;20057;-40
2022/09/16 01:30:49;;;;;;;0.20;0.20;;;24.70;63.80;;;;;;4984276;28;20034;-40
2022/09/16 01:33:30;;;;;;;0.13;0.13;;;24.70;63.80;;;;;;4982240;28;20046;-41
2022/09/16 01:36:07;;;;;;;0.10;0.10;;;24.70;63.80;;;;;;4984687;28;20429;-41
2022/09/16 01:38:45;;;;;;;0.22;0.22;;;24.70;63.90;;;;;;4977804;28;20053;-42
2022/09/16 01:41:41;;;;;;;0.20;0.20;;;24.60;64.00;;;;;;4981673;28;20504;-41
2022/09/16 01:44:19;;;;;;;0.10;0.10;;;24.60;63.90;;;;;;4983164;28;20046;-41
2022/09/16 01:46:52;;;;;;;0.20;0.20;;;24.70;64.70;;;;;;4980483;28;20593;-42
2022/09/16 01:49:24;;;;;;;0.15;0.15;;;24.70;63.90;;;;;;4984181;28;20057;-40
2022/09/16 01:51:56;;;;;;;0.10;0.10;;;24.70;64.00;;;;;;4983533;28;20046;-40
2022/09/16 01:54:43;;;;;;;0.55;0.10;;;24.60;63.80;;;;;;4993601;28;20505;-40
2022/09/16 01:57:18;;;;;;;0.20;0.10;;;24.60;64.00;;;;;;4981411;28;20082;-40
2022/09/16 02:00:06;;;;;;;0.55;0.20;;;24.60;63.90;;;;;;4981431;28;20049;-41
2022/09/16 02:02:58;;;;;;;0.10;0.10;;;24.60;63.90;;;;;;4981071;28;20053;-41
2022/09/16 02:05:34;;;;;;;0.10;0.10;;;24.60;64.00;;;;;;4999545;28;20066;-40
2022/09/16 02:08:04;;;;;;;0.10;0.10;;;24.60;63.90;;;;;;4980637;28;20050;-26
2022/09/16 02:10:36;;;;;;;0.20;0.20;;;24.60;63.90;;;;;;4984948;28;20137;-42
2022/09/16 02:13:26;;;;;;;0.17;0.17;;;24.60;64.00;;;;;;4979319;28;20090;-39
2022/09/16 02:15:52;;;;;;;0.20;0.20;;;24.60;64.00;;;;;;4987749;28;20050;-41
2022/09/16 02:18:21;;;;;;;0.25;0.20;;;24.60;63.90;;;;;;4979494;28;20066;-39
2022/09/16 02:20:46;;;;;;;0.20;0.20;;;24.60;64.00;;;;;;4984436;28;20054;-39
2022/09/16 02:23:21;;;;;;;0.60;0.50;;;24.60;64.00;;;;;;4981659;28;20054;-38
2022/09/16 02:25:47;;;;;;;0.20;0.20;;;24.50;64.00;;;;;;4981244;28;20035;-39
2022/09/16 02:28:16;;;;;;;0.20;0.20;;;24.50;64.00;;;;;;4998435;28;20678;-38
2022/09/16 02:30:43;;;;;;;0.10;0.10;;;24.60;64.10;;;;;;4999505;28;20034;-40
2022/09/16 02:33:08;;;;;;;0.28;0.20;;;24.50;64.70;;;;;;4980805;28;20042;-39
2022/09/16 02:35:35;;;;;;;0.20;0.20;;;24.50;64.00;;;;;;4982496;28;20104;-39
2022/09/16 02:38:24;;;;;;;0.15;0.10;;;24.50;64.00;;;;;;4984011;28;20072;-40
2022/09/16 02:40:54;;;;;;;0.10;0.10;;;24.50;63.90;;;;;;4998865;28;20408;-37
2022/09/16 02:43:20;;;;;;;0.10;0.10;;;24.50;64.00;;;;;;4996964;28;20624;-40
2022/09/16 02:45:49;;;;;;;0.32;0.20;;;24.50;63.90;;;;;;4999145;28;20042;-39
2022/09/16 02:48:20;;;;;;;0.10;0.10;;;24.40;63.90;;;;;;4981752;28;20091;-41
2022/09/16 02:50:53;;;;;;;0.15;0.15;;;24.50;64.00;;;;;;4982016;28;20050;-40
2022/09/16 02:53:31;;;;;;;0.30;0.20;;;24.50;64.00;;;;;;4980471;28;20104;-39
2022/09/16 02:55:59;;;;;;;0.20;0.20;;;24.40;64.00;;;;;;4982991;28;20104;-37
2022/09/16 02:58:25;;;;;;;0.10;0.10;;;24.40;64.00;;;;;;4985298;28;20062;-38
2022/09/16 03:00:52;;;;;;;0.10;0.10;;;24.50;64.00;;;;;;4980636;28;20046;-39
2022/09/16 03:03:18;;;;;;;0.20;0.10;;;24.40;64.00;;;;;;4964486;28;20062;-39
2022/09/16 03:06:02;;;;;;;0.28;0.10;;;24.40;63.90;;;;;;4994806;28;20042;-39
2022/09/16 03:08:28;;;;;;;0.30;0.20;;;24.40;64.00;;;;;;4983145;28;20488;-39
2022/09/16 03:10:53;;;;;;;0.13;0.13;;;24.40;64.00;;;;;;4981997;28;20069;-38
2022/09/16 03:13:49;;;;;;;0.28;0.28;;;24.40;64.00;;;;;;4983331;28;20066;-38
2022/09/16 03:16:21;;;;;;;0.13;0.13;;;24.40;63.90;;;;;;4978172;28;20049;-39
2022/09/16 03:19:02;;;;;;;0.20;0.20;;;24.40;64.00;;;;;;4983228;28;20046;-39
2022/09/16 03:21:39;;;;;;;0.10;0.10;;;24.40;63.90;;;;;;4997252;28;20042;-39
2022/09/16 03:24:27;;;;;;;0.13;0.13;;;24.40;63.90;;;;;;4977595;28;20050;-20
2022/09/16 03:26:59;;;;;;;0.32;0.22;;;24.40;64.00;;;;;;4988924;28;20064;-39
2022/09/16 03:29:37;;;;;;;0.60;0.20;;;24.40;64.00;;;;;;4980815;28;20050;-37
2022/09/16 03:32:27;;;;;;;0.10;0.10;;;24.40;64.10;;;;;;4985675;28;20044;-41
2022/09/16 03:35:01;;;;;;;0.20;0.20;;;24.40;64.00;;;;;;4999549;28;20050;-39
2022/09/16 03:37:28;;;;;;;0.13;0.13;;;24.40;63.90;;;;;;5004324;28;20131;-39
2022/09/16 03:39:57;;;;;;;0.25;0.20;;;24.30;63.80;;;;;;4986987;28;20042;-39
2022/09/16 03:42:23;;;;;;;0.15;0.15;;;24.40;63.70;;;;;;4999107;28;20053;-39
2022/09/16 03:44:48;;;;;;;0.15;0.15;;;24.40;63.90;;;;;;4986089;28;20054;-39
2022/09/16 03:47:14;;;;;;;0.10;0.10;;;24.30;63.80;;;;;;4985930;28;20144;-38
2022/09/16 03:49:40;;;;;;;0.17;0.17;;;24.30;63.80;;;;;;4987529;28;20535;-38
2022/09/16 03:52:06;;;;;;;0.10;0.10;;;24.40;63.90;;;;;;4987187;28;20354;-39
2022/09/16 03:54:32;;;;;;;0.10;0.10;;;24.30;63.80;;;;;;4984033;28;20125;-39
2022/09/16 03:56:59;;;;;;;0.10;0.10;;;24.30;64.00;;;;;;5002295;28;20133;-39
2022/09/16 03:59:25;;;;;;;0.10;0.10;;;24.30;64.80;;;;;;4982647;28;20092;-39
2022/09/16 04:01:51;;;;;;;0.20;0.15;;;24.30;64.00;;;;;;4985651;28;20461;-39
2022/09/16 04:04:16;;;;;;;0.20;0.20;;;24.30;63.90;;;;;;4982995;28;20114;-43
2022/09/16 04:06:42;;;;;;;0.10;0.10;;;24.30;64.00;;;;;;4986103;28;20386;-38
2022/09/16 04:09:10;;;;;;;0.10;0.10;;;24.30;64.00;;;;;;4984498;28;20055;-34
2022/09/16 04:11:36;;;;;;;0.30;0.20;;;24.30;64.00;;;;;;4985025;28;20054;-40
2022/09/16 04:14:03;;;;;;;0.20;0.10;;;24.30;63.80;;;;;;4985877;28;20386;-39
2022/09/16 04:16:29;;;;;;;0.20;0.10;;;24.30;63.70;;;;;;4985337;28;20058;-39
2022/09/16 04:18:55;;;;;;;0.20;0.17;;;24.30;63.80;;;;;;4982816;28;20041;-39
2022/09/16 04:21:21;;;;;;;0.10;0.10;;;24.30;63.70;;;;;;4985256;28;20074;-40
2022/09/16 04:23:47;;;;;;;0.10;0.10;;;24.30;63.80;;;;;;4985123;28;20454;-40
2022/09/16 04:26:13;;;;;;;0.10;0.10;;;24.30;63.80;;;;;;4984051;28;20123;-41
2022/09/16 04:28:38;;;;;;;0.05;0.05;;;24.30;63.90;;;;;;4984967;28;20485;-38
2022/09/16 04:31:05;;;;;;;0.30;0.10;;;24.30;63.90;;;;;;4983715;28;20045;-40
2022/09/16 04:33:32;;;;;;;0.10;0.10;;;24.30;63.90;;;;;;4982767;28;20038;-39
2022/09/16 04:36:11;;;;;;;0.10;0.10;;;24.30;63.90;;;;;;4985740;28;20054;-38
2022/09/16 04:38:37;;;;;;;0.10;0.10;;;24.30;63.90;;;;;;5000527;28;20578;-39
2022/09/16 04:41:04;;;;;;;0.10;0.10;;;24.30;63.80;;;;;;4984599;28;20042;-39
2022/09/16 04:43:29;;;;;;;0.10;0.10;;;24.30;63.90;;;;;;4984990;28;20054;-39
2022/09/16 04:45:55;;;;;;;0.10;0.10;;;24.30;63.80;;;;;;4985133;28;20045;-41
2022/09/16 04:48:21;;;;;;;0.10;0.10;;;24.30;63.80;;;;;;4984561;28;20119;-39
2022/09/16 04:50:46;;;;;;;0.03;0.03;;;24.30;63.80;;;;;;4986557;28;20836;-39
2022/09/16 04:53:12;;;;;;;0.10;0.10;;;24.30;63.80;;;;;;4984981;28;22738;-37
2022/09/16 04:55:37;;;;;;;0.00;0.00;;;24.30;63.90;;;;;;4986723;28;20042;-39
2022/09/16 04:58:03;;;;;;;0.43;0.03;;;24.30;63.80;;;;;;4985260;28;20066;-39
2022/09/16 05:00:29;;;;;;;0.10;0.10;;;24.30;63.70;;;;;;4984226;28;20054;-40
2022/09/16 05:02:54;;;;;;;0.20;0.20;;;24.20;63.70;;;;;;4982582;28;20300;-40
2022/09/16 05:05:20;;;;;;;0.10;0.10;;;24.20;63.70;;;;;;4984139;28;20050;-39
2022/09/16 05:07:46;;;;;;;0.00;0.00;;;24.30;63.80;;;;;;4983940;28;20081;-38
2022/09/16 05:10:11;;;;;;;0.10;0.10;;;24.20;63.70;;;;;;4981789;28;20035;-20
2022/09/16 05:12:37;;;;;;;0.20;0.20;;;24.20;63.70;;;;;;4981034;28;20087;-39
2022/09/16 05:15:03;;;;;;;0.95;0.10;;;24.20;63.80;;;;;;4979696;28;20050;-39
2022/09/16 05:17:30;;;;;;;0.28;0.10;;;24.20;63.70;;;;;;4976480;28;20133;-39
2022/09/16 05:19:56;;;;;;;0.10;0.10;;;24.20;63.80;;;;;;4981882;28;20099;-39
2022/09/16 05:22:21;;;;;;;0.17;0.10;;;24.20;63.80;;;;;;4980562;28;20509;-41
2022/09/16 05:24:47;;;;;;;0.25;0.20;;;24.20;64.70;;;;;;4981235;28;20042;-41
2022/09/16 05:27:13;;;;;;;0.35;0.10;;;24.20;63.80;;;;;;4995951;28;20034;-37
2022/09/16 05:29:39;;;;;;;0.20;0.10;;;24.20;63.70;;;;;;4634216;28;10000088;-38
2022/09/16 05:32:04;;;;;;;0.10;0.10;;;24.20;63.60;;;;;;4979920;28;20475;-40
2022/09/16 05:34:30;;;;;;;0.22;0.20;;;24.20;64.30;;;;;;4980353;28;20171;-41
2022/09/16 05:36:56;;;;;;;0.10;0.10;;;24.20;64.20;;;;;;4982929;28;20030;-39
2022/09/16 05:39:22;;;;;;;0.13;0.10;;;24.10;64.40;;;;;;4979423;28;20099;-39
2022/09/16 05:41:47;;;;;;;1.58;0.20;;;24.10;64.60;;;;;;4979803;28;20050;-40
2022/09/16 05:44:13;;;;;;;0.10;0.10;;;24.00;64.70;;;;;;4978642;28;20056;-17
2022/09/16 05:46:42;;;;;;;0.15;0.15;;;24.00;64.70;;;;;;4978456;28;20061;-41
2022/09/16 05:49:08;;;;;;;0.15;0.10;;;24.00;64.60;;;;;;4976988;28;20042;-39
2022/09/16 05:51:35;;;;;;;1.20;0.30;;;24.00;64.50;;;;;;4984837;28;20150;-34
2022/09/16 05:54:01;;;;;;;0.43;0.30;;;24.00;63.60;;;;;;4980887;28;20042;-39
2022/09/16 05:56:28;;;;;;;0.50;0.40;;;23.90;58.30;;;;;;4981696;28;20053;-32
2022/09/16 05:58:54;;;;;;;4.65;0.60;;;23.90;57.60;;;;;;4981342;28;20103;-40
2022/09/16 06:01:24;;;;;;;0.80;0.50;;;23.70;57.00;;;;;;4981687;28;20138;-37
2022/09/16 06:03:50;;;;;;;0.70;0.40;;;23.50;56.90;;;;;;4977883;28;20058;-39
2022/09/16 06:06:25;;;;;;;1.00;0.40;;;23.50;56.70;;;;;;4978544;28;20074;-38
2022/09/16 06:08:55;;;;;;;0.43;0.30;;;23.30;57.30;;;;;;4980086;28;20049;-40
2022/09/16 06:11:21;;;;;;;1.38;0.52;;;23.30;57.70;;;;;;4981766;28;20054;-38
2022/09/16 06:13:50;;;;;;;0.40;0.30;;;23.40;57.80;;;;;;4983660;28;20034;-37
2022/09/16 06:16:16;;;;;;;0.68;0.32;;;23.40;58.30;;;;;;4982621;28;20489;-38
2022/09/16 06:18:42;;;;;;;0.50;0.40;;;23.50;58.30;;;;;;4980353;28;20096;-41
2022/09/16 06:21:10;;;;;;;1.55;0.40;;;23.50;58.20;;;;;;4981083;28;20057;-39
2022/09/16 06:23:36;;;;;;;1.88;0.35;;;23.60;58.40;;;;;;4977042;28;20093;-44
2022/09/16 06:26:07;;;;;;;0.80;0.40;;;23.50;58.50;;;;;;4978082;28;20038;-38
2022/09/16 06:28:33;;;;;;;1.83;0.40;;;23.60;59.30;;;;;;4977303;28;20398;-38
2022/09/16 06:31:15;;;;;;;1.30;0.30;;;23.60;58.60;;;;;;4976979;28;20038;-38
2022/09/16 06:33:41;;;;;;;0.38;0.28;;;23.60;58.70;;;;;;4980203;28;20046;-38
2022/09/16 06:36:14;;;;;;;0.57;0.20;;;23.60;59.00;;;;;;4998767;28;20072;-39
2022/09/16 06:38:40;;;;;;;0.40;0.20;;;23.60;59.10;;;;;;4989701;28;20387;-38
2022/09/16 06:41:07;;;;;;;0.40;0.30;;;23.70;59.30;;;;;;4984489;28;20067;-41
2022/09/16 06:43:33;;;;;;;0.50;0.45;;;23.70;59.30;;;;;;4983585;28;20050;-39
2022/09/16 06:45:59;;;;;;;1.85;0.40;;;23.70;59.50;;;;;;4981937;28;20039;-38
2022/09/16 06:48:26;;;;;;;0.28;0.17;;;23.70;59.60;;;;;;4982274;28;20066;-38
2022/09/16 06:51:01;;;;;;;0.52;0.30;;;23.70;60.50;;;;;;4982420;28;20096;-38
2022/09/16 06:53:27;;;;;;;0.52;0.47;;;23.70;59.80;;;;;;4979466;28;20547;-38
2022/09/16 06:55:53;;;;;;;0.30;0.22;;;23.70;60.00;;;;;;4983847;28;20074;-39
2022/09/16 06:58:18;;;;;;;0.30;0.20;;;23.70;60.00;;;;;;4983286;28;20043;-40
2022/09/16 07:00:44;;;;;;;0.45;0.35;;;23.70;60.00;;;;;;4983072;28;20355;-41
2022/09/16 07:03:09;;;;;;;0.77;0.43;;;23.70;60.30;;;;;;4981328;28;20150;-40
2022/09/16 07:05:35;;;;;;;0.40;0.40;;;23.70;60.40;;;;;;4983073;28;20034;-39
2022/09/16 07:08:01;;;;;;;0.30;0.30;;;23.70;60.60;;;;;;4983803;28;20493;-39
2022/09/16 07:10:26;;;;;;;0.70;0.47;;;23.70;60.60;;;;;;4983520;28;20454;-40
2022/09/16 07:12:52;;;;;;;0.40;0.30;;;23.70;60.70;;;;;;4982811;28;20057;-40
2022/09/16 07:15:18;;;;;;;1.25;0.30;;;23.70;60.80;;;;;;4982557;28;20046;-42
2022/09/16 07:17:43;;;;;;;0.50;0.20;;;23.70;60.90;;;;;;4981713;28;20108;-40
2022/09/16 07:20:09;;;;;;;0.28;0.20;;;23.70;61.00;;;;;;4984481;28;20125;-38
2022/09/16 07:22:34;;;;;;;0.45;0.30;;;23.70;60.80;;;;;;4983596;28;20026;-39
2022/09/16 07:25:00;;;;;;;0.30;0.20;;;23.70;61.10;;;;;;4982660;28;20132;-39
2022/09/16 07:27:25;;;;;;;0.20;0.20;;;23.70;61.20;;;;;;4981274;28;20534;-38
2022/09/16 07:29:53;;;;;;;0.40;0.20;;;23.70;61.20;;;;;;4982632;28;20056;-40
2022/09/16 07:32:18;;;;;;;0.20;0.20;;;23.70;62.10;;;;;;4982882;28;20038;-40
2022/09/16 07:34:44;;;;;;;0.30;0.20;;;23.70;61.40;;;;;;4982971;28;20054;-43
2022/09/16 07:37:10;;;;;;;0.20;0.20;;;23.70;61.50;;;;;;4986141;28;20048;-39
2022/09/16 07:39:36;;;;;;;0.38;0.25;;;23.70;61.50;;;;;;4982074;28;20073;-39
2022/09/16 07:42:02;;;;;;;0.22;0.22;;;23.70;61.50;;;;;;4983405;28;20054;-38
2022/09/16 07:44:28;;;;;;;0.47;0.20;;;23.70;61.60;;;;;;4979905;28;20035;-40
2022/09/16 07:46:54;;;;;;;0.60;0.30;;;23.70;61.40;;;;;;4981841;28;20042;-40
2022/09/16 07:49:19;;;;;;;0.40;0.20;;;23.80;61.70;;;;;;4982716;28;20039;-40
2022/09/16 07:51:45;;;;;;;0.10;0.10;;;23.70;61.60;;;;;;4982565;28;20047;-40
2022/09/16 07:54:14;;;;;;;0.55;0.28;;;23.80;61.60;;;;;;4981921;28;20456;-38
2022/09/16 07:56:40;;;;;;;0.17;0.13;;;23.80;61.70;;;;;;4982045;28;20039;-44
2022/09/16 07:59:09;;;;;;;0.40;0.20;;;23.70;61.60;;;;;;4982069;28;20409;-40
2022/09/16 08:01:35;;;;;;;0.20;0.20;;;23.70;61.70;;;;;;4983095;28;20042;-39
2022/09/16 08:04:00;;;;;;;0.30;0.20;;;23.80;61.80;;;;;;4981933;28;20523;-38
2022/09/16 08:06:28;;;;;;;1.00;0.20;;;23.80;61.70;;;;;;4981971;28;20111;-35
2022/09/16 08:08:55;;;;;;;0.30;0.15;;;23.80;61.70;;;;;;4982556;28;20038;-38
2022/09/16 08:11:21;;;;;;;0.20;0.20;;;23.80;61.70;;;;;;4983562;28;20046;-38
2022/09/16 08:13:46;;;;;;;0.20;0.20;;;23.80;61.90;;;;;;4983211;28;20147;-39
2022/09/16 08:16:14;;;;;;;0.28;0.20;;;23.80;61.70;;;;;;4983370;28;20073;-39
2022/09/16 08:18:39;;;;;;;0.10;0.10;;;23.80;61.70;;;;;;4985063;28;20046;-38
2022/09/16 08:21:09;;;;;;;0.22;0.20;;;23.80;61.80;;;;;;4985810;28;20386;-38
2022/09/16 08:23:35;;;;;;;0.20;0.20;;;23.80;61.70;;;;;;4983841;28;20047;-43
2022/09/16 08:26:01;;;;;;;0.20;0.20;;;23.80;61.80;;;;;;4985807;28;20081;-41
2022/09/16 08:28:27;;;;;;;0.35;0.20;;;23.80;61.90;;;;;;4986229;28;20050;-38
2022/09/16 08:30:53;;;;;;;0.20;0.20;;;23.80;61.90;;;;;;4986207;28;20042;-38
2022/09/16 08:33:20;;;;;;;0.10;0.10;;;23.80;62.80;;;;;;4985298;28;20044;-39
2022/09/16 08:36:09;;;;;;;0.22;0.20;;;23.80;61.90;;;;;;4984953;28;20057;-38
2022/09/16 08:38:35;;;;;;;0.20;0.20;;;23.80;61.90;;;;;;4986488;28;20137;-42
2022/09/16 08:41:22;;;;;;;0.32;0.28;;;23.80;62.70;;;;;;4986357;28;20558;-40
2022/09/16 08:44:19;;;;;;;0.28;0.20;;;23.70;61.90;;;;;;4994814;28;20159;-40
2022/09/16 08:46:55;;;;;;;0.55;0.30;;;23.80;61.60;;;;;;4983384;28;20085;-40
2022/09/16 08:49:25;;;;;;;0.22;0.20;;;23.80;61.30;;;;;;4984382;28;20039;-40
2022/09/16 08:51:52;;;;;;;0.45;0.17;;;23.80;61.40;;;;;;4984710;28;20027;-40
2022/09/16 08:54:38;;;;;;;0.35;0.10;;;23.90;61.40;;;;;;4984541;28;20090;-39
2022/09/16 08:57:04;;;;;;;0.20;0.20;;;23.90;61.30;;;;;;4997512;28;20129;-39
2022/09/16 08:59:33;;;;;;;0.20;0.10;;;23.90;61.50;;;;;;4982239;28;21994;-38
2022/09/16 09:02:23;;;;;;;0.10;0.10;;;23.90;61.10;;;;;;4983310;28;20054;-40
2022/09/16 09:04:48;;;;;;;0.30;0.30;;;23.90;60.90;;;;;;4983107;28;20585;-42
2022/09/16 09:07:46;;;;;;;0.15;0.15;;;24.00;61.30;;;;;;4985418;28;20046;-40
2022/09/16 09:10:23;;;;;;;0.30;0.20;;;23.90;61.20;;;;;;4983687;28;20038;-38
2022/09/16 09:13:18;;;;;;;0.10;0.10;;;24.00;61.20;;;;;;4983867;28;20133;-40
2022/09/16 09:16:04;;;;;;;0.40;0.17;;;24.00;61.10;;;;;;4991826;28;20145;-39
2022/09/16 09:18:36;;;;;;;0.20;0.20;;;24.00;61.40;;;;;;4981923;28;20046;-36
2022/09/16 09:21:32;;;;;;;0.20;0.10;;;24.00;61.40;;;;;;4984660;28;20046;-41
2022/09/16 09:24:23;;;;;;;0.20;0.10;;;24.00;61.30;;;;;;4983647;28;20070;-40
2022/09/16 09:26:50;;;;;;;0.25;0.10;;;24.00;61.40;;;;;;4984526;28;20093;-40
2022/09/16 09:29:34;;;;;;;0.10;0.10;;;24.00;61.30;;;;;;4981855;28;20062;-38
2022/09/16 09:32:43;;;;;;;0.43;0.13;;;24.00;61.00;;;;;;4984841;28;20455;-38
2022/09/16 09:35:21;;;;;;;0.20;0.13;;;24.00;61.10;;;;;;4984068;28;20077;-40
2022/09/16 09:38:28;;;;;;;0.30;0.28;;;24.00;61.40;;;;;;4983995;28;20054;-40
2022/09/16 09:40:57;;;;;;;0.00;0.00;;;24.00;61.30;;;;;;4984654;28;20660;-38
2022/09/16 09:43:37;;;;;;;0.10;0.10;;;24.00;61.30;;;;;;4985357;28;20134;-40
2022/09/16 09:46:18;;;;;;;0.10;0.10;;;24.00;61.50;;;;;;4982495;28;20062;-40
2022/09/16 09:49:08;;;;;;;0.20;0.20;;;24.00;61.30;;;;;;4980220;28;20084;-38
2022/09/16 09:51:36;;;;;;;0.20;0.10;;;24.00;61.40;;;;;;4982026;28;20125;-38
2022/09/16 09:54:24;;;;;;;0.10;0.10;;;24.00;61.40;;;;;;4978354;28;20062;-38
2022/09/16 09:56:49;;;;;;;0.10;0.00;;;24.00;61.40;;;;;;4983495;28;20513;-38
2022/09/16 09:59:27;;;;;;;0.05;0.00;;;24.00;61.40;;;;;;4984082;28;20099;-39
2022/09/16 10:01:55;;;;;;;0.22;0.10;;;24.00;61.30;;;;;;4983153;28;20054;-40
2022/09/16 10:04:20;;;;;;;0.10;0.10;;;24.10;61.40;;;;;;4983170;28;20046;-38
2022/09/16 10:06:46;;;;;;;0.40;0.30;;;24.10;61.30;;;;;;4984063;28;20413;-39
2022/09/16 10:09:12;;;;;;;0.05;0.05;;;24.10;61.50;;;;;;4637146;28;10000051;-38
2022/09/16 10:11:48;;;;;;;0.10;0.10;;;24.20;61.50;;;;;;4977848;28;20148;-37
2022/09/16 10:14:31;;;;;;;0.40;0.20;;;24.20;61.50;;;;;;4982508;28;20050;-40
2022/09/16 10:17:00;;;;;;;0.10;0.10;;;24.20;61.50;;;;;;4983526;28;20077;-39
2022/09/16 10:19:26;;;;;;;0.10;0.10;;;24.20;61.40;;;;;;4982921;28;20560;-40
2022/09/16 10:22:06;;;;;;;0.15;0.10;;;24.20;61.50;;;;;;4982006;28;20058;-38
2022/09/16 10:24:37;;;;;;;0.13;0.05;;;24.20;61.60;;;;;;4991039;28;20126;-39
2022/09/16 10:27:20;;;;;;;0.10;0.10;;;24.20;61.50;;;;;;4983620;28;20088;-39
2022/09/16 10:29:45;;;;;;;0.10;0.10;;;24.20;61.70;;;;;;4981953;28;20046;-40
2022/09/16 10:32:20;;;;;;;0.22;0.10;;;24.20;61.70;;;;;;4979687;28;20045;-39
2022/09/16 10:34:46;;;;;;;0.20;0.10;;;24.20;61.50;;;;;;4998330;28;20121;-37
2022/09/16 10:37:12;;;;;;;0.20;0.10;;;24.20;61.60;;;;;;4984766;28;20338;-40
2022/09/16 10:39:42;;;;;;;0.10;0.10;;;24.20;61.70;;;;;;4987785;28;20334;-40
2022/09/16 10:42:27;;;;;;;0.20;0.20;;;24.20;61.70;;;;;;5003532;28;20035;-38
2022/09/16 10:45:03;;;;;;;0.15;0.10;;;24.20;61.70;;;;;;4981378;28;20046;-39
2022/09/16 10:47:32;;;;;;;0.45;0.30;;;24.20;61.80;;;;;;4986002;28;20038;-39
2022/09/16 10:50:04;;;;;;;0.20;0.10;;;24.20;61.60;;;;;;4999203;28;20047;-38
2022/09/16 10:52:30;;;;;;;0.15;0.10;;;24.20;61.50;;;;;;4982959;28;20185;-39
2022/09/16 10:54:56;;;;;;;0.20;0.20;;;24.20;61.80;;;;;;4988862;28;20050;-38
2022/09/16 10:57:29;;;;;;;0.20;0.20;;;24.20;61.70;;;;;;4981926;28;20428;-38
2022/09/16 11:00:07;;;;;;;0.10;0.10;;;24.20;61.60;;;;;;4987497;28;20579;-39
2022/09/16 11:03:07;;;;;;;0.10;0.10;;;24.30;61.70;;;;;;4981828;28;20530;-37
2022/09/16 11:05:51;;;;;;;0.03;0.00;;;24.30;61.70;;;;;;5002775;28;20055;-36
2022/09/16 11:08:32;;;;;;;0.13;0.10;;;24.30;61.70;;;;;;4983609;28;20446;-39
2022/09/16 11:11:23;;;;;;;0.15;0.13;;;24.30;61.80;;;;;;4985643;28;20501;-38
2022/09/16 11:14:10;;;;;;;0.20;0.10;;;24.30;61.70;;;;;;5017322;28;20041;-37
2022/09/16 11:16:54;;;;;;;0.15;0.08;;;24.30;61.70;;;;;;5020249;28;20538;-38
2022/09/16 11:19:50;;;;;;;0.30;0.28;;;24.40;61.70;;;;;;5023132;28;20049;-38
2022/09/16 11:22:35;;;;;;;0.40;0.20;;;24.30;61.70;;;;;;5006135;28;20184;-39
2022/09/16 11:25:18;;;;;;;0.35;0.10;;;24.40;61.90;;;;;;5003454;28;20046;-38
2022/09/16 11:27:53;;;;;;;0.10;0.10;;;24.40;61.90;;;;;;5019973;28;20504;-38
2022/09/16 11:30:21;;;;;;;0.10;0.10;;;24.40;61.90;;;;;;5021771;28;20068;-38
2022/09/16 11:33:04;;;;;;;0.20;0.10;;;24.40;62.30;;;;;;5020258;28;20037;-37
2022/09/16 11:35:42;;;;;;;0.10;0.10;;;24.40;61.90;;;;;;5006494;28;20040;-38
2022/09/16 11:38:12;;;;;;;0.10;0.00;;;24.40;61.80;;;;;;5003593;28;20071;-38
2022/09/16 11:40:43;;;;;;;0.40;0.20;;;24.40;61.50;;;;;;5006536;28;20049;-38
2022/09/16 11:43:27;;;;;;;0.32;0.32;;;24.40;61.10;;;;;;5020938;28;20084;-38
2022/09/16 11:46:13;;;;;;;;;;;24.40;61.50;;;;;;5019685;28;20033;-40
2022/09/16 11:49:15;;;;;;;0.10;0.10;;;24.40;60.70;;;;;;5018014;28;19909;-40
2022/09/16 11:51:53;;;;;;;1.08;0.10;;;24.40;59.60;;;;;;4990664;28;20088;-38
2022/09/16 11:54:40;;;;;;;0.10;0.10;;;24.40;59.00;;;;;;4979289;28;20506;-40
2022/09/16 11:57:18;;;;;;;0.05;0.05;;;24.40;59.10;;;;;;5008581;28;20066;-38
2022/09/16 12:00:01;;;;;;;0.30;0.10;;;24.40;59.10;;;;;;4983626;28;20512;-40
2022/09/16 12:02:35;;;;;;;1.45;0.10;;;24.40;58.60;;;;;;4984577;28;20039;-38
2022/09/16 12:05:20;;;;;;;0.10;0.10;;;24.40;58.30;;;;;;4997377;28;20038;-40
2022/09/16 12:08:07;;;;;;;0.13;0.10;;;24.40;58.00;;;;;;4986204;28;20049;-38
2022/09/16 12:10:46;;;;;;;0.30;0.13;;;24.40;57.60;;;;;;4986773;28;20042;-39
2022/09/16 12:13:15;;;;;;;0.10;0.10;;;24.40;57.90;;;;;;4981412;28;20042;-38
2022/09/16 12:15:46;;;;;;;0.20;0.17;;;24.40;57.90;;;;;;4964335;28;20053;-38
2022/09/16 12:18:29;;;;;;;0.20;0.20;;;24.40;57.40;;;;;;4985422;28;22043;-38
2022/09/16 12:21:09;;;;;;;0.52;0.10;;;24.40;58.30;;;;;;4983470;28;20132;-40
2022/09/16 12:23:39;;;;;;;0.20;0.10;;;24.40;57.10;;;;;;4983367;28;20053;-39
2022/09/16 12:26:17;;;;;;;0.00;0.00;;;24.40;57.00;;;;;;4984272;28;20042;-37
2022/09/16 12:28:50;;;;;;;0.20;0.10;;;24.40;57.70;;;;;;4984827;28;20116;-40
2022/09/16 12:31:35;;;;;;;0.23;0.10;;;24.40;56.80;;;;;;5001073;28;20042;-37
2022/09/16 12:34:21;;;;;;;0.10;0.10;;;24.40;57.10;;;;;;4999131;28;20046;-38
2022/09/16 12:36:49;;;;;;;0.57;0.20;;;24.40;57.10;;;;;;4968189;28;20046;-44
2022/09/16 12:39:14;;;;;;;0.20;0.20;;;24.40;57.20;;;;;;4985376;28;20042;-41
2022/09/16 12:41:43;;;;;;;0.15;0.10;;;24.40;56.90;;;;;;4985393;28;20458;-41
2022/09/16 12:44:27;;;;;;;0.10;0.10;;;24.40;57.10;;;;;;4985719;28;20043;-37
2022/09/16 12:47:01;;;;;;;0.55;0.40;;;24.40;57.40;;;;;;4980291;28;20043;-36
2022/09/16 12:49:38;;;;;;;0.13;0.10;;;24.40;57.20;;;;;;4983889;28;20038;-40
2022/09/16 12:52:41;;;;;;;0.17;0.10;;;24.40;57.70;;;;;;4984726;28;20443;-37
2022/09/16 12:55:32;;;;;;;0.17;0.10;;;24.40;57.40;;;;;;4984502;28;20409;-39
2022/09/16 12:58:02;;;;;;;0.20;0.10;;;24.40;57.10;;;;;;4984369;28;20067;-41
2022/09/16 13:00:50;;;;;;;0.20;0.20;;;24.40;57.70;;;;;;4977748;28;20057;-42
2022/09/16 13:03:18;;;;;;;0.13;0.13;;;24.40;57.20;;;;;;4983840;28;20054;-41
2022/09/16 13:05:49;;;;;;;0.10;0.00;;;24.40;57.50;;;;;;4998442;28;20042;-44
2022/09/16 13:08:35;;;;;;;0.00;0.00;;;24.40;57.60;;;;;;4984590;28;20059;-41
2022/09/16 13:11:13;;;;;;;0.15;0.10;;;24.40;58.10;;;;;;4984894;28;20054;-41
2022/09/16 13:13:41;;;;;;;0.15;0.10;;;24.40;58.10;;;;;;5000111;28;20042;-40
2022/09/16 13:16:07;;;;;;;0.10;0.10;;;24.40;58.30;;;;;;4979365;28;20134;-42